sensor_id;sensor_type;location;lat;lon;timestamp;temperature;humidity
50907;DHT22;36882;27.680;85.304;2022-07-06T00:02:25;26.50;99.90
50907;DHT22;36882;27.680;85.304;2022-07-06T00:04:55;26.50;99.90
50907;DHT22;36882;27.680;85.304;2022-07-06T00:07:27;26.50;99.90
50907;DHT22;36882;27.680;85.304;2022-07-06T00:09:57;26.50;99.90
50907;DHT22;36882;27.680;85.304;2022-07-06T00:12:28;26.50;99.90
50907;DHT22;36882;27.680;85.304;2022-07-06T00:14:58;26.50;99.80
50907;DHT22;36882;27.680;85.304;2022-07-06T00:17:29;26.50;99.80
50907;DHT22;36882;27.680;85.304;2022-07-06T00:19:59;26.60;99.90
50907;DHT22;36882;27.680;85.304;2022-07-06T00:22:30;26.60;99.90
50907;DHT22;36882;27.680;85.304;2022-07-06T00:25:00;26.60;99.70
50907;DHT22;36882;27.680;85.304;2022-07-06T00:27:31;26.60;99.60
50907;DHT22;36882;27.680;85.304;2022-07-06T00:30:01;26.60;99.70
50907;DHT22;36882;27.680;85.304;2022-07-06T00:32:32;26.60;99.70
50907;DHT22;36882;27.680;85.304;2022-07-06T00:35:02;26.60;99.80
50907;DHT22;36882;27.680;85.304;2022-07-06T00:37:33;26.70;99.60
50907;DHT22;36882;27.680;85.304;2022-07-06T00:40:04;26.70;99.50
50907;DHT22;36882;27.680;85.304;2022-07-06T00:42:44;26.70;99.70
50907;DHT22;36882;27.680;85.304;2022-07-06T00:45:16;26.80;99.80
50907;DHT22;36882;27.680;85.304;2022-07-06T00:47:47;26.70;99.70
50907;DHT22;36882;27.680;85.304;2022-07-06T00:50:18;26.70;99.60
50907;DHT22;36882;27.680;85.304;2022-07-06T00:52:54;26.80;99.60
50907;DHT22;36882;27.680;85.304;2022-07-06T00:55:32;26.80;99.30
50907;DHT22;36882;27.680;85.304;2022-07-06T00:58:04;26.80;99.20
50907;DHT22;36882;27.680;85.304;2022-07-06T01:00:35;26.80;99.10
50907;DHT22;36882;27.680;85.304;2022-07-06T01:03:06;26.80;99.10
50907;DHT22;36882;27.680;85.304;2022-07-06T01:05:37;26.80;99.00
50907;DHT22;36882;27.680;85.304;2022-07-06T01:08:07;26.90;99.10
50907;DHT22;36882;27.680;85.304;2022-07-06T01:10:38;26.90;99.00
50907;DHT22;36882;27.680;85.304;2022-07-06T01:13:08;26.90;99.00
50907;DHT22;36882;27.680;85.304;2022-07-06T01:15:39;26.90;99.00
50907;DHT22;36882;27.680;85.304;2022-07-06T01:18:12;26.90;98.90
50907;DHT22;36882;27.680;85.304;2022-07-06T01:20:43;27.00;98.60
50907;DHT22;36882;27.680;85.304;2022-07-06T01:23:13;27.00;98.50
50907;DHT22;36882;27.680;85.304;2022-07-06T01:25:44;26.90;98.70
50907;DHT22;36882;27.680;85.304;2022-07-06T01:28:14;26.90;98.80
50907;DHT22;36882;27.680;85.304;2022-07-06T01:30:45;26.90;98.80
50907;DHT22;36882;27.680;85.304;2022-07-06T01:33:15;27.00;99.00
50907;DHT22;36882;27.680;85.304;2022-07-06T01:35:46;27.00;99.20
50907;DHT22;36882;27.680;85.304;2022-07-06T01:38:17;26.90;99.40
50907;DHT22;36882;27.680;85.304;2022-07-06T01:40:48;26.90;99.30
50907;DHT22;36882;27.680;85.304;2022-07-06T01:43:18;26.90;99.20
50907;DHT22;36882;27.680;85.304;2022-07-06T01:45:48;27.00;99.20
50907;DHT22;36882;27.680;85.304;2022-07-06T01:48:19;27.00;98.90
50907;DHT22;36882;27.680;85.304;2022-07-06T01:50:50;27.10;99.00
50907;DHT22;36882;27.680;85.304;2022-07-06T01:53:22;27.10;99.00
50907;DHT22;36882;27.680;85.304;2022-07-06T01:55:52;27.20;99.00
50907;DHT22;36882;27.680;85.304;2022-07-06T01:58:23;27.30;99.10
50907;DHT22;36882;27.680;85.304;2022-07-06T02:00:53;27.40;98.80
50907;DHT22;36882;27.680;85.304;2022-07-06T02:03:24;27.60;98.90
50907;DHT22;36882;27.680;85.304;2022-07-06T02:05:55;27.70;98.50
50907;DHT22;36882;27.680;85.304;2022-07-06T02:08:25;28.00;98.20
50907;DHT22;36882;27.680;85.304;2022-07-06T02:10:56;28.20;97.60
50907;DHT22;36882;27.680;85.304;2022-07-06T02:13:27;28.30;97.40
50907;DHT22;36882;27.680;85.304;2022-07-06T02:15:57;28.30;97.30
50907;DHT22;36882;27.680;85.304;2022-07-06T02:18:28;28.30;97.40
50907;DHT22;36882;27.680;85.304;2022-07-06T02:20:59;28.30;97.70
50907;DHT22;36882;27.680;85.304;2022-07-06T02:23:29;28.40;97.60
50907;DHT22;36882;27.680;85.304;2022-07-06T02:26:00;28.50;97.60
50907;DHT22;36882;27.680;85.304;2022-07-06T02:28:33;28.80;97.30
50907;DHT22;36882;27.680;85.304;2022-07-06T09:43:21;26.50;99.00
50907;DHT22;36882;27.680;85.304;2022-07-06T09:45:54;26.50;99.00
50907;DHT22;36882;27.680;85.304;2022-07-06T09:48:27;26.90;97.80
50907;DHT22;36882;27.680;85.304;2022-07-06T09:51:01;27.20;97.00
50907;DHT22;36882;27.680;85.304;2022-07-06T09:53:35;27.40;97.20
50907;DHT22;36882;27.680;85.304;2022-07-06T09:56:06;27.40;97.50
50907;DHT22;36882;27.680;85.304;2022-07-06T09:58:38;27.40;97.40
50907;DHT22;36882;27.680;85.304;2022-07-06T10:01:29;27.40;97.60
50907;DHT22;36882;27.680;85.304;2022-07-06T10:04:00;27.40;97.80
50907;DHT22;36882;27.680;85.304;2022-07-06T10:06:31;27.40;98.30
50907;DHT22;36882;27.680;85.304;2022-07-06T10:09:05;27.30;98.60
50907;DHT22;36882;27.680;85.304;2022-07-06T10:11:42;27.30;98.50
50907;DHT22;36882;27.680;85.304;2022-07-06T10:14:19;27.40;98.60
50907;DHT22;36882;27.680;85.304;2022-07-06T10:16:51;27.50;98.60
50907;DHT22;36882;27.680;85.304;2022-07-06T10:19:22;27.60;98.30
50907;DHT22;36882;27.680;85.304;2022-07-06T10:21:52;27.70;97.90
50907;DHT22;36882;27.680;85.304;2022-07-06T10:24:23;27.70;98.00
50907;DHT22;36882;27.680;85.304;2022-07-06T10:26:55;27.70;98.10
50907;DHT22;36882;27.680;85.304;2022-07-06T10:29:26;27.80;98.20
50907;DHT22;36882;27.680;85.304;2022-07-06T10:32:12;27.90;97.90
50907;DHT22;36882;27.680;85.304;2022-07-06T10:34:43;27.80;98.00
50907;DHT22;36882;27.680;85.304;2022-07-06T10:37:24;27.50;98.50
50907;DHT22;36882;27.680;85.304;2022-07-06T10:39:55;27.40;99.30
50907;DHT22;36882;27.680;85.304;2022-07-06T10:42:49;27.40;99.40
50907;DHT22;36882;27.680;85.304;2022-07-06T10:48:42;27.70;98.60
50907;DHT22;36882;27.680;85.304;2022-07-06T10:53:58;27.90;98.70
50907;DHT22;36882;27.680;85.304;2022-07-06T10:56:36;27.80;98.40
50907;DHT22;36882;27.680;85.304;2022-07-06T10:59:12;27.80;98.50
50907;DHT22;36882;27.680;85.304;2022-07-06T11:04:47;27.50;98.30
50907;DHT22;36882;27.680;85.304;2022-07-06T11:07:19;27.50;98.30
50907;DHT22;36882;27.680;85.304;2022-07-06T11:10:00;27.50;98.30
50907;DHT22;36882;27.680;85.304;2022-07-06T11:12:31;27.40;98.40
50907;DHT22;36882;27.680;85.304;2022-07-06T11:15:01;27.40;98.50
50907;DHT22;36882;27.680;85.304;2022-07-06T11:17:32;27.40;98.60
50907;DHT22;36882;27.680;85.304;2022-07-06T11:20:11;27.40;98.60
50907;DHT22;36882;27.680;85.304;2022-07-06T11:22:43;27.40;98.40
50907;DHT22;36882;27.680;85.304;2022-07-06T11:25:14;27.40;98.20
50907;DHT22;36882;27.680;85.304;2022-07-06T11:27:47;27.40;97.90
50907;DHT22;36882;27.680;85.304;2022-07-06T11:30:18;27.30;98.00
50907;DHT22;36882;27.680;85.304;2022-07-06T11:32:48;27.20;98.30
50907;DHT22;36882;27.680;85.304;2022-07-06T11:35:22;27.20;98.70
50907;DHT22;36882;27.680;85.304;2022-07-06T11:37:52;27.10;98.60
50907;DHT22;36882;27.680;85.304;2022-07-06T11:40:23;27.10;98.40
50907;DHT22;36882;27.680;85.304;2022-07-06T11:42:54;27.20;98.60
50907;DHT22;36882;27.680;85.304;2022-07-06T11:45:26;27.20;98.10
50907;DHT22;36882;27.680;85.304;2022-07-06T11:48:10;27.20;98.20
50907;DHT22;36882;27.680;85.304;2022-07-06T11:50:40;27.20;98.60
50907;DHT22;36882;27.680;85.304;2022-07-06T11:53:15;27.20;99.20
50907;DHT22;36882;27.680;85.304;2022-07-06T11:55:45;27.20;98.80
50907;DHT22;36882;27.680;85.304;2022-07-06T11:58:20;27.20;99.00
50907;DHT22;36882;27.680;85.304;2022-07-06T12:01:08;27.20;99.10
50907;DHT22;36882;27.680;85.304;2022-07-06T12:03:39;27.10;98.70
50907;DHT22;36882;27.680;85.304;2022-07-06T12:06:25;27.20;98.90
50907;DHT22;36882;27.680;85.304;2022-07-06T12:08:58;27.20;99.00
50907;DHT22;36882;27.680;85.304;2022-07-06T12:11:30;27.20;98.80
50907;DHT22;36882;27.680;85.304;2022-07-06T12:14:03;27.20;98.60
50907;DHT22;36882;27.680;85.304;2022-07-06T12:16:43;27.10;98.40
50907;DHT22;36882;27.680;85.304;2022-07-06T12:19:14;27.10;98.20
50907;DHT22;36882;27.680;85.304;2022-07-06T12:21:47;27.10;98.50
50907;DHT22;36882;27.680;85.304;2022-07-06T12:24:22;27.20;98.50
50907;DHT22;36882;27.680;85.304;2022-07-06T12:26:53;27.20;98.20
50907;DHT22;36882;27.680;85.304;2022-07-06T12:29:24;27.20;98.40
50907;DHT22;36882;27.680;85.304;2022-07-06T12:31:56;27.20;98.20
50907;DHT22;36882;27.680;85.304;2022-07-06T12:34:28;27.20;98.30
50907;DHT22;36882;27.680;85.304;2022-07-06T12:37:09;27.20;98.30
50907;DHT22;36882;27.680;85.304;2022-07-06T12:39:42;27.10;98.60
50907;DHT22;36882;27.680;85.304;2022-07-06T12:42:17;27.10;98.80
50907;DHT22;36882;27.680;85.304;2022-07-06T12:44:50;27.20;98.40
50907;DHT22;36882;27.680;85.304;2022-07-06T12:47:24;27.10;98.60
50907;DHT22;36882;27.680;85.304;2022-07-06T12:50:11;27.10;98.20
50907;DHT22;36882;27.680;85.304;2022-07-06T12:52:42;27.00;98.40
50907;DHT22;36882;27.680;85.304;2022-07-06T12:55:12;27.00;98.70
50907;DHT22;36882;27.680;85.304;2022-07-06T12:57:48;27.00;98.70
50907;DHT22;36882;27.680;85.304;2022-07-06T13:00:44;27.00;99.20
50907;DHT22;36882;27.680;85.304;2022-07-06T13:03:16;27.00;99.30
50907;DHT22;36882;27.680;85.304;2022-07-06T13:05:49;27.00;98.80
50907;DHT22;36882;27.680;85.304;2022-07-06T13:08:20;27.00;99.00
50907;DHT22;36882;27.680;85.304;2022-07-06T13:10:51;27.00;99.10
50907;DHT22;36882;27.680;85.304;2022-07-06T13:21:48;25.70;99.90
50907;DHT22;36882;27.680;85.304;2022-07-06T13:24:19;25.40;99.90
50907;DHT22;36882;27.680;85.304;2022-07-06T13:26:50;25.70;99.90
50907;DHT22;36882;27.680;85.304;2022-07-06T13:29:20;25.90;99.90
50907;DHT22;36882;27.680;85.304;2022-07-06T13:31:51;26.20;99.90
50907;DHT22;36882;27.680;85.304;2022-07-06T13:34:22;26.30;99.90
50907;DHT22;36882;27.680;85.304;2022-07-06T13:36:53;26.40;99.90
50907;DHT22;36882;27.680;85.304;2022-07-06T13:39:23;26.60;99.90
50907;DHT22;36882;27.680;85.304;2022-07-06T13:42:12;26.70;99.90
50907;DHT22;36882;27.680;85.304;2022-07-06T13:44:42;26.70;99.50
50907;DHT22;36882;27.680;85.304;2022-07-06T13:47:13;26.80;99.40
50907;DHT22;36882;27.680;85.304;2022-07-06T13:49:43;26.80;99.80
50907;DHT22;36882;27.680;85.304;2022-07-06T13:52:17;26.80;99.90
50907;DHT22;36882;27.680;85.304;2022-07-06T13:54:48;26.90;99.90
50907;DHT22;36882;27.680;85.304;2022-07-06T13:57:18;26.90;99.90
50907;DHT22;36882;27.680;85.304;2022-07-06T13:59:49;26.90;99.90
50907;DHT22;36882;27.680;85.304;2022-07-06T14:02:19;26.90;99.90
50907;DHT22;36882;27.680;85.304;2022-07-06T14:04:50;26.90;99.90
50907;DHT22;36882;27.680;85.304;2022-07-06T14:07:20;26.90;99.90
50907;DHT22;36882;27.680;85.304;2022-07-06T14:09:51;26.90;99.90
50907;DHT22;36882;27.680;85.304;2022-07-06T14:12:22;26.90;99.90
50907;DHT22;36882;27.680;85.304;2022-07-06T14:14:53;26.90;99.40
50907;DHT22;36882;27.680;85.304;2022-07-06T14:17:25;26.90;99.50
50907;DHT22;36882;27.680;85.304;2022-07-06T14:19:56;26.90;99.60
50907;DHT22;36882;27.680;85.304;2022-07-06T14:22:29;26.90;99.50
50907;DHT22;36882;27.680;85.304;2022-07-06T14:25:01;26.90;99.80
50907;DHT22;36882;27.680;85.304;2022-07-06T14:27:32;26.90;99.70
50907;DHT22;36882;27.680;85.304;2022-07-06T14:30:04;26.90;99.80
50907;DHT22;36882;27.680;85.304;2022-07-06T14:32:34;26.80;99.90
50907;DHT22;36882;27.680;85.304;2022-07-06T14:35:20;26.80;99.90
50907;DHT22;36882;27.680;85.304;2022-07-06T14:37:51;26.90;99.90
50907;DHT22;36882;27.680;85.304;2022-07-06T14:40:21;26.90;99.90
50907;DHT22;36882;27.680;85.304;2022-07-06T14:42:55;26.90;99.90
50907;DHT22;36882;27.680;85.304;2022-07-06T14:45:26;26.90;99.90
50907;DHT22;36882;27.680;85.304;2022-07-06T14:47:57;26.90;99.90
50907;DHT22;36882;27.680;85.304;2022-07-06T14:50:27;26.90;99.90
50907;DHT22;36882;27.680;85.304;2022-07-06T14:52:58;26.90;99.90
50907;DHT22;36882;27.680;85.304;2022-07-06T14:55:30;26.90;99.90
50907;DHT22;36882;27.680;85.304;2022-07-06T14:58:00;26.90;99.90
50907;DHT22;36882;27.680;85.304;2022-07-06T15:00:31;26.90;99.90
50907;DHT22;36882;27.680;85.304;2022-07-06T15:03:01;26.90;99.90
50907;DHT22;36882;27.680;85.304;2022-07-06T15:05:32;26.90;99.90
50907;DHT22;36882;27.680;85.304;2022-07-06T15:08:04;26.90;99.90
50907;DHT22;36882;27.680;85.304;2022-07-06T15:10:35;26.90;99.90
50907;DHT22;36882;27.680;85.304;2022-07-06T15:13:05;26.90;99.90
50907;DHT22;36882;27.680;85.304;2022-07-06T15:15:37;26.90;99.90
50907;DHT22;36882;27.680;85.304;2022-07-06T15:18:26;27.00;99.90
50907;DHT22;36882;27.680;85.304;2022-07-06T15:20:57;26.90;99.90
50907;DHT22;36882;27.680;85.304;2022-07-06T15:23:27;27.00;99.90
50907;DHT22;36882;27.680;85.304;2022-07-06T15:25:58;26.90;99.90
50907;DHT22;36882;27.680;85.304;2022-07-06T15:28:28;27.00;99.90
50907;DHT22;36882;27.680;85.304;2022-07-06T15:30:59;27.00;99.90
50907;DHT22;36882;27.680;85.304;2022-07-06T15:33:30;27.00;99.90
50907;DHT22;36882;27.680;85.304;2022-07-06T15:36:00;27.00;99.90
50907;DHT22;36882;27.680;85.304;2022-07-06T15:38:31;27.00;99.90
50907;DHT22;36882;27.680;85.304;2022-07-06T15:41:04;27.00;99.90
50907;DHT22;36882;27.680;85.304;2022-07-06T15:43:34;26.90;99.90
50907;DHT22;36882;27.680;85.304;2022-07-06T15:46:06;26.90;99.90
50907;DHT22;36882;27.680;85.304;2022-07-06T15:48:37;27.00;99.90
50907;DHT22;36882;27.680;85.304;2022-07-06T15:51:08;27.00;99.90
50907;DHT22;36882;27.680;85.304;2022-07-06T15:53:38;27.00;99.90
50907;DHT22;36882;27.680;85.304;2022-07-06T15:56:09;27.00;99.90
50907;DHT22;36882;27.680;85.304;2022-07-06T15:58:40;27.00;99.90
50907;DHT22;36882;27.680;85.304;2022-07-06T16:01:12;27.00;99.90
50907;DHT22;36882;27.680;85.304;2022-07-06T16:03:43;26.90;99.90
50907;DHT22;36882;27.680;85.304;2022-07-06T16:06:14;26.90;99.90
50907;DHT22;36882;27.680;85.304;2022-07-06T16:08:45;26.90;99.90
50907;DHT22;36882;27.680;85.304;2022-07-06T16:11:15;26.90;99.90
50907;DHT22;36882;27.680;85.304;2022-07-06T16:13:46;26.80;99.90
50907;DHT22;36882;27.680;85.304;2022-07-06T16:16:24;26.90;99.90
50907;DHT22;36882;27.680;85.304;2022-07-06T16:18:54;26.80;99.90
50907;DHT22;36882;27.680;85.304;2022-07-06T16:21:25;26.90;99.90
50907;DHT22;36882;27.680;85.304;2022-07-06T16:23:56;26.80;99.90
50907;DHT22;36882;27.680;85.304;2022-07-06T16:26:26;26.80;99.90
50907;DHT22;36882;27.680;85.304;2022-07-06T16:28:58;26.80;99.90
50907;DHT22;36882;27.680;85.304;2022-07-06T16:31:29;26.70;99.90
50907;DHT22;36882;27.680;85.304;2022-07-06T16:34:00;26.80;99.90
50907;DHT22;36882;27.680;85.304;2022-07-06T16:36:30;26.80;99.90
50907;DHT22;36882;27.680;85.304;2022-07-06T16:39:01;26.80;99.90
50907;DHT22;36882;27.680;85.304;2022-07-06T16:41:31;26.80;99.90
50907;DHT22;36882;27.680;85.304;2022-07-06T16:44:02;26.80;99.90
50907;DHT22;36882;27.680;85.304;2022-07-06T16:46:32;26.80;99.90
50907;DHT22;36882;27.680;85.304;2022-07-06T16:49:03;26.80;99.90
50907;DHT22;36882;27.680;85.304;2022-07-06T16:51:33;26.80;99.90
50907;DHT22;36882;27.680;85.304;2022-07-06T16:54:04;26.80;99.90
50907;DHT22;36882;27.680;85.304;2022-07-06T16:56:34;26.80;99.90
50907;DHT22;36882;27.680;85.304;2022-07-06T16:59:05;26.70;99.90
50907;DHT22;36882;27.680;85.304;2022-07-06T17:01:36;26.70;99.90
50907;DHT22;36882;27.680;85.304;2022-07-06T17:04:06;26.70;99.90
50907;DHT22;36882;27.680;85.304;2022-07-06T17:06:37;26.80;99.90
50907;DHT22;36882;27.680;85.304;2022-07-06T17:09:07;26.80;99.90
50907;DHT22;36882;27.680;85.304;2022-07-06T17:11:38;26.80;99.90
50907;DHT22;36882;27.680;85.304;2022-07-06T17:14:08;26.80;99.90
50907;DHT22;36882;27.680;85.304;2022-07-06T17:16:39;26.80;99.90
50907;DHT22;36882;27.680;85.304;2022-07-06T17:19:09;26.80;99.90
50907;DHT22;36882;27.680;85.304;2022-07-06T17:21:40;26.70;99.90
50907;DHT22;36882;27.680;85.304;2022-07-06T17:24:26;26.70;99.90
50907;DHT22;36882;27.680;85.304;2022-07-06T17:26:56;26.70;99.90
50907;DHT22;36882;27.680;85.304;2022-07-06T17:29:27;26.70;99.90
50907;DHT22;36882;27.680;85.304;2022-07-06T17:31:57;26.80;99.90
50907;DHT22;36882;27.680;85.304;2022-07-06T17:34:32;26.80;99.90
50907;DHT22;36882;27.680;85.304;2022-07-06T17:37:03;26.90;99.90
50907;DHT22;36882;27.680;85.304;2022-07-06T17:39:35;26.80;99.90
50907;DHT22;36882;27.680;85.304;2022-07-06T17:42:06;26.80;99.90
50907;DHT22;36882;27.680;85.304;2022-07-06T17:44:37;26.80;99.90
50907;DHT22;36882;27.680;85.304;2022-07-06T17:47:07;26.70;99.90
50907;DHT22;36882;27.680;85.304;2022-07-06T17:49:38;26.70;99.90
50907;DHT22;36882;27.680;85.304;2022-07-06T17:52:08;26.70;99.90
50907;DHT22;36882;27.680;85.304;2022-07-06T17:54:45;26.60;99.90
50907;DHT22;36882;27.680;85.304;2022-07-06T17:57:21;26.70;99.90
50907;DHT22;36882;27.680;85.304;2022-07-06T17:59:52;26.70;99.90
50907;DHT22;36882;27.680;85.304;2022-07-06T18:02:22;26.70;99.90
50907;DHT22;36882;27.680;85.304;2022-07-06T18:04:53;26.70;99.90
50907;DHT22;36882;27.680;85.304;2022-07-06T18:07:23;26.70;99.90
50907;DHT22;36882;27.680;85.304;2022-07-06T18:09:54;26.70;99.90
50907;DHT22;36882;27.680;85.304;2022-07-06T18:12:24;26.60;99.90
50907;DHT22;36882;27.680;85.304;2022-07-06T18:14:55;26.60;99.90
50907;DHT22;36882;27.680;85.304;2022-07-06T18:17:25;26.50;99.90
50907;DHT22;36882;27.680;85.304;2022-07-06T18:19:56;26.50;99.90
50907;DHT22;36882;27.680;85.304;2022-07-06T18:22:26;26.50;99.90
50907;DHT22;36882;27.680;85.304;2022-07-06T18:24:58;26.50;99.90
50907;DHT22;36882;27.680;85.304;2022-07-06T18:27:28;26.50;99.90
50907;DHT22;36882;27.680;85.304;2022-07-06T18:29:58;26.50;99.90
50907;DHT22;36882;27.680;85.304;2022-07-06T18:32:29;26.40;99.90
50907;DHT22;36882;27.680;85.304;2022-07-06T18:34:59;26.40;99.90
50907;DHT22;36882;27.680;85.304;2022-07-06T18:37:31;26.40;99.90
50907;DHT22;36882;27.680;85.304;2022-07-06T18:40:17;26.40;99.90
50907;DHT22;36882;27.680;85.304;2022-07-06T18:42:47;26.50;99.90
50907;DHT22;36882;27.680;85.304;2022-07-06T18:45:24;26.50;99.90
50907;DHT22;36882;27.680;85.304;2022-07-06T18:47:55;26.50;99.90
50907;DHT22;36882;27.680;85.304;2022-07-06T18:50:26;26.50;99.90
50907;DHT22;36882;27.680;85.304;2022-07-06T18:52:56;26.50;99.90
50907;DHT22;36882;27.680;85.304;2022-07-06T18:55:26;26.50;99.90
50907;DHT22;36882;27.680;85.304;2022-07-06T18:57:57;26.50;99.90
50907;DHT22;36882;27.680;85.304;2022-07-06T19:00:28;26.50;99.90
50907;DHT22;36882;27.680;85.304;2022-07-06T19:02:58;26.40;99.90
50907;DHT22;36882;27.680;85.304;2022-07-06T19:05:29;26.50;99.90
50907;DHT22;36882;27.680;85.304;2022-07-06T19:07:59;26.40;99.80
50907;DHT22;36882;27.680;85.304;2022-07-06T19:10:30;26.40;99.90
50907;DHT22;36882;27.680;85.304;2022-07-06T19:13:00;26.40;99.80
50907;DHT22;36882;27.680;85.304;2022-07-06T19:15:31;26.40;99.70
50907;DHT22;36882;27.680;85.304;2022-07-06T19:18:02;26.30;99.90
50907;DHT22;36882;27.680;85.304;2022-07-06T19:20:33;26.30;99.90
50907;DHT22;36882;27.680;85.304;2022-07-06T19:23:03;26.30;99.90
50907;DHT22;36882;27.680;85.304;2022-07-06T19:25:34;26.30;99.90
50907;DHT22;36882;27.680;85.304;2022-07-06T19:28:05;26.30;99.90
50907;DHT22;36882;27.680;85.304;2022-07-06T19:30:35;26.30;99.90
50907;DHT22;36882;27.680;85.304;2022-07-06T19:33:06;26.30;99.90
50907;DHT22;36882;27.680;85.304;2022-07-06T19:35:37;26.20;99.90
50907;DHT22;36882;27.680;85.304;2022-07-06T19:38:07;26.20;99.90
50907;DHT22;36882;27.680;85.304;2022-07-06T19:40:38;26.00;99.90
50907;DHT22;36882;27.680;85.304;2022-07-06T19:43:08;25.90;99.90
50907;DHT22;36882;27.680;85.304;2022-07-06T19:45:39;25.90;99.90
50907;DHT22;36882;27.680;85.304;2022-07-06T19:48:09;25.90;99.90
50907;DHT22;36882;27.680;85.304;2022-07-06T19:50:40;26.00;99.90
50907;DHT22;36882;27.680;85.304;2022-07-06T19:53:10;26.10;99.90
50907;DHT22;36882;27.680;85.304;2022-07-06T19:55:41;26.10;99.90
50907;DHT22;36882;27.680;85.304;2022-07-06T19:58:12;26.20;99.90
50907;DHT22;36882;27.680;85.304;2022-07-06T20:00:42;26.20;99.90
50907;DHT22;36882;27.680;85.304;2022-07-06T20:03:17;26.20;99.90
50907;DHT22;36882;27.680;85.304;2022-07-06T20:05:48;26.20;99.90
50907;DHT22;36882;27.680;85.304;2022-07-06T20:08:19;26.30;99.90
50907;DHT22;36882;27.680;85.304;2022-07-06T20:10:50;26.20;99.90
50907;DHT22;36882;27.680;85.304;2022-07-06T20:13:20;26.20;99.90
50907;DHT22;36882;27.680;85.304;2022-07-06T20:15:51;26.20;99.90
50907;DHT22;36882;27.680;85.304;2022-07-06T20:18:22;26.20;99.90
50907;DHT22;36882;27.680;85.304;2022-07-06T20:21:08;26.20;99.90
50907;DHT22;36882;27.680;85.304;2022-07-06T20:23:39;26.10;99.90
50907;DHT22;36882;27.680;85.304;2022-07-06T20:26:10;26.10;99.90
50907;DHT22;36882;27.680;85.304;2022-07-06T20:28:40;26.20;99.90
50907;DHT22;36882;27.680;85.304;2022-07-06T20:31:11;26.20;99.90
50907;DHT22;36882;27.680;85.304;2022-07-06T20:33:57;26.20;99.90
50907;DHT22;36882;27.680;85.304;2022-07-06T20:36:27;26.20;99.90
50907;DHT22;36882;27.680;85.304;2022-07-06T20:38:58;26.20;99.90
50907;DHT22;36882;27.680;85.304;2022-07-06T20:41:29;26.20;99.90
50907;DHT22;36882;27.680;85.304;2022-07-06T20:43:59;26.20;99.90
50907;DHT22;36882;27.680;85.304;2022-07-06T20:46:29;26.10;99.90
50907;DHT22;36882;27.680;85.304;2022-07-06T20:49:00;26.20;99.90
50907;DHT22;36882;27.680;85.304;2022-07-06T20:51:30;26.10;99.90
50907;DHT22;36882;27.680;85.304;2022-07-06T20:54:02;26.10;99.90
50907;DHT22;36882;27.680;85.304;2022-07-06T20:56:32;26.10;99.90
50907;DHT22;36882;27.680;85.304;2022-07-06T20:59:03;26.10;99.90
50907;DHT22;36882;27.680;85.304;2022-07-06T21:01:41;26.20;99.90
50907;DHT22;36882;27.680;85.304;2022-07-06T21:04:12;26.20;99.90
50907;DHT22;36882;27.680;85.304;2022-07-06T21:06:43;26.20;99.90
50907;DHT22;36882;27.680;85.304;2022-07-06T21:09:14;26.20;99.90
50907;DHT22;36882;27.680;85.304;2022-07-06T21:11:44;26.20;99.90
50907;DHT22;36882;27.680;85.304;2022-07-06T21:14:15;26.20;99.90
50907;DHT22;36882;27.680;85.304;2022-07-06T21:16:45;26.20;99.90
50907;DHT22;36882;27.680;85.304;2022-07-06T21:19:16;26.20;99.90
50907;DHT22;36882;27.680;85.304;2022-07-06T21:21:46;26.20;99.90
50907;DHT22;36882;27.680;85.304;2022-07-06T21:24:17;26.10;99.90
50907;DHT22;36882;27.680;85.304;2022-07-06T21:26:47;26.10;99.90
50907;DHT22;36882;27.680;85.304;2022-07-06T21:29:33;26.10;99.90
50907;DHT22;36882;27.680;85.304;2022-07-06T21:32:04;26.00;99.90
50907;DHT22;36882;27.680;85.304;2022-07-06T21:34:34;26.00;99.90
50907;DHT22;36882;27.680;85.304;2022-07-06T21:37:05;26.00;99.90
50907;DHT22;36882;27.680;85.304;2022-07-06T21:39:35;26.00;99.90
50907;DHT22;36882;27.680;85.304;2022-07-06T21:42:06;25.90;99.90
50907;DHT22;36882;27.680;85.304;2022-07-06T21:44:36;25.80;99.90
50907;DHT22;36882;27.680;85.304;2022-07-06T21:47:07;25.80;99.90
50907;DHT22;36882;27.680;85.304;2022-07-06T21:49:38;25.90;99.90
50907;DHT22;36882;27.680;85.304;2022-07-06T21:52:08;25.80;99.90
50907;DHT22;36882;27.680;85.304;2022-07-06T21:54:39;25.80;99.90
50907;DHT22;36882;27.680;85.304;2022-07-06T21:57:10;25.80;99.90
50907;DHT22;36882;27.680;85.304;2022-07-06T21:59:42;25.80;99.90
50907;DHT22;36882;27.680;85.304;2022-07-06T22:02:13;25.70;99.90
50907;DHT22;36882;27.680;85.304;2022-07-06T22:04:43;25.70;99.90
50907;DHT22;36882;27.680;85.304;2022-07-06T22:07:14;25.80;99.90
50907;DHT22;36882;27.680;85.304;2022-07-06T22:09:44;25.80;99.90
50907;DHT22;36882;27.680;85.304;2022-07-06T22:12:14;25.80;99.90
50907;DHT22;36882;27.680;85.304;2022-07-06T22:14:45;25.70;99.90
50907;DHT22;36882;27.680;85.304;2022-07-06T22:17:15;25.70;99.90
50907;DHT22;36882;27.680;85.304;2022-07-06T22:19:46;25.70;99.90
50907;DHT22;36882;27.680;85.304;2022-07-06T22:22:22;25.60;99.90
50907;DHT22;36882;27.680;85.304;2022-07-06T22:24:53;25.60;99.90
50907;DHT22;36882;27.680;85.304;2022-07-06T22:27:23;25.60;99.90
50907;DHT22;36882;27.680;85.304;2022-07-06T22:29:54;25.60;99.90
50907;DHT22;36882;27.680;85.304;2022-07-06T22:32:39;25.60;99.90
50907;DHT22;36882;27.680;85.304;2022-07-06T22:35:10;25.60;99.90
50907;DHT22;36882;27.680;85.304;2022-07-06T22:37:40;25.60;99.90
50907;DHT22;36882;27.680;85.304;2022-07-06T22:40:11;25.60;99.90
50907;DHT22;36882;27.680;85.304;2022-07-06T22:42:56;25.60;99.90
50907;DHT22;36882;27.680;85.304;2022-07-06T22:45:28;25.60;99.90
50907;DHT22;36882;27.680;85.304;2022-07-06T22:47:59;25.50;99.90
50907;DHT22;36882;27.680;85.304;2022-07-06T22:50:45;25.60;99.90
50907;DHT22;36882;27.680;85.304;2022-07-06T22:53:16;25.60;99.90
50907;DHT22;36882;27.680;85.304;2022-07-06T22:55:46;25.60;99.90
50907;DHT22;36882;27.680;85.304;2022-07-06T22:58:17;25.60;99.90
50907;DHT22;36882;27.680;85.304;2022-07-06T23:00:48;25.60;99.90
50907;DHT22;36882;27.680;85.304;2022-07-06T23:03:18;25.70;99.90
50907;DHT22;36882;27.680;85.304;2022-07-06T23:05:52;25.70;99.90
50907;DHT22;36882;27.680;85.304;2022-07-06T23:08:22;25.70;99.90
50907;DHT22;36882;27.680;85.304;2022-07-06T23:10:53;25.70;99.90
50907;DHT22;36882;27.680;85.304;2022-07-06T23:13:24;25.70;99.90
50907;DHT22;36882;27.680;85.304;2022-07-06T23:15:55;25.70;99.90